< < Back
Terminal Aerodrome Forecast


Current Version              Previous Versions:   1  2  3  4  5  6  7  8  9  

Terminal Aerodrome Forecast

455
FTUS42 KJAX 170300 AAC
TAFSSI
TAF AMD
KSSI 170359Z 1704/1724 26004KT P6SM VCSH SCT008 BKN035
      TEMPO 1704/1707 BKN008
     FM171200 30003KT P6SM SCT012 BKN020
     FM171600 02005KT P6SM SCT020 SCT100=



Latest METAR

842
SAUS70 KWBC 170500
MTRSSI
METAR KSSI 170449Z AUTO 36003KT 10SM SCT007 SCT013 24/23 A2994 RMK AO2
SLP139 T02390228 402890233


USA.gov is the U.S. government's official web portal to all federal, state and local government web resources and services.